sensor_id;sensor_type;location;lat;lon;timestamp;P1;durP1;ratioP1;P2;durP2;ratioP2
59390;SDS011;53405;57.012;40.984;2024-02-16T00:01:09;8.75;;;2.97;;
59390;SDS011;53405;57.012;40.984;2024-02-16T00:03:36;10.25;;;3.75;;
59390;SDS011;53405;57.012;40.984;2024-02-16T00:06:04;6.50;;;2.85;;
59390;SDS011;53405;57.012;40.984;2024-02-16T00:08:32;7.28;;;2.85;;
59390;SDS011;53405;57.012;40.984;2024-02-16T00:11:01;13.52;;;3.75;;
59390;SDS011;53405;57.012;40.984;2024-02-16T00:13:30;10.02;;;3.35;;
59390;SDS011;53405;57.012;40.984;2024-02-16T00:15:57;8.00;;;3.50;;
59390;SDS011;53405;57.012;40.984;2024-02-16T00:18:24;6.72;;;2.70;;
59390;SDS011;53405;57.012;40.984;2024-02-16T00:20:52;7.82;;;3.20;;
59390;SDS011;53405;57.012;40.984;2024-02-16T00:23:20;7.95;;;3.28;;
59390;SDS011;53405;57.012;40.984;2024-02-16T00:25:49;12.10;;;4.65;;
59390;SDS011;53405;57.012;40.984;2024-02-16T00:28:17;11.20;;;3.58;;
59390;SDS011;53405;57.012;40.984;2024-02-16T00:30:44;7.15;;;2.78;;
59390;SDS011;53405;57.012;40.984;2024-02-16T00:33:14;7.53;;;2.65;;
59390;SDS011;53405;57.012;40.984;2024-02-16T00:35:41;9.82;;;3.38;;
59390;SDS011;53405;57.012;40.984;2024-02-16T00:38:08;7.85;;;2.63;;
59390;SDS011;53405;57.012;40.984;2024-02-16T00:40:36;9.50;;;3.20;;
59390;SDS011;53405;57.012;40.984;2024-02-16T00:43:04;7.53;;;2.78;;
59390;SDS011;53405;57.012;40.984;2024-02-16T00:45:32;9.98;;;3.20;;
59390;SDS011;53405;57.012;40.984;2024-02-16T00:47:59;9.32;;;2.92;;
59390;SDS011;53405;57.012;40.984;2024-02-16T00:50:29;7.57;;;2.80;;
59390;SDS011;53405;57.012;40.984;2024-02-16T00:52:56;9.15;;;2.90;;
59390;SDS011;53405;57.012;40.984;2024-02-16T00:55:24;9.52;;;3.22;;
59390;SDS011;53405;57.012;40.984;2024-02-16T00:57:51;9.65;;;3.55;;
59390;SDS011;53405;57.012;40.984;2024-02-16T01:00:19;7.40;;;2.97;;
59390;SDS011;53405;57.012;40.984;2024-02-16T01:02:47;10.00;;;3.50;;
59390;SDS011;53405;57.012;40.984;2024-02-16T01:05:14;10.48;;;2.92;;
59390;SDS011;53405;57.012;40.984;2024-02-16T01:07:44;8.95;;;3.22;;
59390;SDS011;53405;57.012;40.984;2024-02-16T01:10:12;9.90;;;3.47;;
59390;SDS011;53405;57.012;40.984;2024-02-16T01:12:40;9.15;;;3.55;;
59390;SDS011;53405;57.012;40.984;2024-02-16T01:15:08;6.57;;;2.67;;
59390;SDS011;53405;57.012;40.984;2024-02-16T01:17:36;8.15;;;3.08;;
59390;SDS011;53405;57.012;40.984;2024-02-16T01:20:04;9.73;;;4.18;;
59390;SDS011;53405;57.012;40.984;2024-02-16T01:22:33;11.40;;;4.20;;
59390;SDS011;53405;57.012;40.984;2024-02-16T01:25:00;7.53;;;3.42;;
59390;SDS011;53405;57.012;40.984;2024-02-16T01:27:28;8.98;;;3.28;;
59390;SDS011;53405;57.012;40.984;2024-02-16T01:29:56;8.77;;;3.13;;
59390;SDS011;53405;57.012;40.984;2024-02-16T01:32:23;8.27;;;3.38;;
59390;SDS011;53405;57.012;40.984;2024-02-16T01:34:51;11.95;;;3.45;;
59390;SDS011;53405;57.012;40.984;2024-02-16T01:37:18;7.85;;;3.28;;
59390;SDS011;53405;57.012;40.984;2024-02-16T01:39:46;15.02;;;3.92;;
59390;SDS011;53405;57.012;40.984;2024-02-16T01:42:13;8.68;;;3.13;;
59390;SDS011;53405;57.012;40.984;2024-02-16T01:44:41;8.30;;;3.15;;
59390;SDS011;53405;57.012;40.984;2024-02-16T01:47:08;7.53;;;2.88;;
59390;SDS011;53405;57.012;40.984;2024-02-16T01:49:37;6.47;;;2.75;;
59390;SDS011;53405;57.012;40.984;2024-02-16T01:52:04;8.45;;;2.78;;
59390;SDS011;53405;57.012;40.984;2024-02-16T01:54:34;10.00;;;3.17;;
59390;SDS011;53405;57.012;40.984;2024-02-16T01:57:01;8.63;;;3.35;;
59390;SDS011;53405;57.012;40.984;2024-02-16T01:59:29;9.82;;;3.58;;
59390;SDS011;53405;57.012;40.984;2024-02-16T02:01:57;6.80;;;2.72;;
59390;SDS011;53405;57.012;40.984;2024-02-16T02:04:24;7.78;;;3.28;;
59390;SDS011;53405;57.012;40.984;2024-02-16T02:06:53;8.67;;;2.93;;
59390;SDS011;53405;57.012;40.984;2024-02-16T02:09:21;10.43;;;3.25;;
59390;SDS011;53405;57.012;40.984;2024-02-16T02:11:48;8.70;;;3.22;;
59390;SDS011;53405;57.012;40.984;2024-02-16T02:14:16;10.43;;;3.10;;
59390;SDS011;53405;57.012;40.984;2024-02-16T02:16:44;6.65;;;2.92;;
59390;SDS011;53405;57.012;40.984;2024-02-16T02:19:24;8.65;;;3.78;;
59390;SDS011;53405;57.012;40.984;2024-02-16T02:21:51;8.68;;;3.83;;
59390;SDS011;53405;57.012;40.984;2024-02-16T02:24:19;10.13;;;3.65;;
59390;SDS011;53405;57.012;40.984;2024-02-16T02:26:47;8.18;;;3.22;;
59390;SDS011;53405;57.012;40.984;2024-02-16T02:29:15;9.40;;;3.28;;
59390;SDS011;53405;57.012;40.984;2024-02-16T02:31:42;7.68;;;3.63;;
59390;SDS011;53405;57.012;40.984;2024-02-16T02:34:10;7.13;;;2.95;;
59390;SDS011;53405;57.012;40.984;2024-02-16T02:36:38;8.30;;;3.63;;
59390;SDS011;53405;57.012;40.984;2024-02-16T02:39:05;8.15;;;3.17;;
59390;SDS011;53405;57.012;40.984;2024-02-16T02:41:33;11.27;;;4.15;;
59390;SDS011;53405;57.012;40.984;2024-02-16T02:44:01;8.55;;;3.80;;
59390;SDS011;53405;57.012;40.984;2024-02-16T02:46:28;9.00;;;2.63;;
59390;SDS011;53405;57.012;40.984;2024-02-16T02:48:56;6.90;;;2.78;;
59390;SDS011;53405;57.012;40.984;2024-02-16T02:51:23;9.27;;;3.58;;
59390;SDS011;53405;57.012;40.984;2024-02-16T02:53:51;8.75;;;3.20;;
59390;SDS011;53405;57.012;40.984;2024-02-16T02:56:18;14.65;;;4.82;;
59390;SDS011;53405;57.012;40.984;2024-02-16T02:58:46;9.55;;;3.88;;
59390;SDS011;53405;57.012;40.984;2024-02-16T03:01:14;8.32;;;3.08;;
59390;SDS011;53405;57.012;40.984;2024-02-16T03:03:41;8.65;;;3.15;;
59390;SDS011;53405;57.012;40.984;2024-02-16T03:06:10;12.25;;;4.03;;
59390;SDS011;53405;57.012;40.984;2024-02-16T03:08:38;7.93;;;2.80;;
59390;SDS011;53405;57.012;40.984;2024-02-16T03:11:05;9.30;;;3.75;;
59390;SDS011;53405;57.012;40.984;2024-02-16T03:13:32;8.27;;;3.10;;
59390;SDS011;53405;57.012;40.984;2024-02-16T03:16:00;12.13;;;4.45;;
59390;SDS011;53405;57.012;40.984;2024-02-16T03:18:31;13.15;;;4.68;;
59390;SDS011;53405;57.012;40.984;2024-02-16T03:20:59;8.82;;;3.85;;
59390;SDS011;53405;57.012;40.984;2024-02-16T03:23:27;9.02;;;3.55;;
59390;SDS011;53405;57.012;40.984;2024-02-16T03:25:55;8.38;;;3.10;;
59390;SDS011;53405;57.012;40.984;2024-02-16T03:28:22;7.93;;;3.50;;
59390;SDS011;53405;57.012;40.984;2024-02-16T03:30:50;8.68;;;2.95;;
59390;SDS011;53405;57.012;40.984;2024-02-16T03:33:18;12.95;;;3.92;;
59390;SDS011;53405;57.012;40.984;2024-02-16T03:35:47;11.70;;;3.60;;
59390;SDS011;53405;57.012;40.984;2024-02-16T03:38:16;8.93;;;3.80;;
59390;SDS011;53405;57.012;40.984;2024-02-16T03:40:43;10.02;;;3.30;;
59390;SDS011;53405;57.012;40.984;2024-02-16T03:43:11;10.65;;;4.07;;
59390;SDS011;53405;57.012;40.984;2024-02-16T03:45:39;12.10;;;4.13;;
59390;SDS011;53405;57.012;40.984;2024-02-16T03:48:07;10.48;;;3.70;;
59390;SDS011;53405;57.012;40.984;2024-02-16T03:50:34;11.48;;;3.58;;
59390;SDS011;53405;57.012;40.984;2024-02-16T03:53:02;9.65;;;3.33;;
59390;SDS011;53405;57.012;40.984;2024-02-16T03:55:31;7.00;;;3.38;;
59390;SDS011;53405;57.012;40.984;2024-02-16T03:58:03;8.77;;;3.33;;
59390;SDS011;53405;57.012;40.984;2024-02-16T04:00:31;12.02;;;3.63;;
59390;SDS011;53405;57.012;40.984;2024-02-16T04:03:00;11.85;;;3.67;;
59390;SDS011;53405;57.012;40.984;2024-02-16T04:05:28;10.43;;;3.55;;
59390;SDS011;53405;57.012;40.984;2024-02-16T04:08:01;14.38;;;5.90;;
59390;SDS011;53405;57.012;40.984;2024-02-16T04:10:35;9.18;;;3.30;;
59390;SDS011;53405;57.012;40.984;2024-02-16T04:13:03;12.68;;;4.18;;
59390;SDS011;53405;57.012;40.984;2024-02-16T04:15:30;11.52;;;4.78;;
59390;SDS011;53405;57.012;40.984;2024-02-16T04:17:58;11.77;;;5.05;;
59390;SDS011;53405;57.012;40.984;2024-02-16T04:20:26;14.48;;;4.40;;
59390;SDS011;53405;57.012;40.984;2024-02-16T04:22:53;11.63;;;4.63;;
59390;SDS011;53405;57.012;40.984;2024-02-16T04:25:21;14.35;;;4.90;;
59390;SDS011;53405;57.012;40.984;2024-02-16T04:27:48;13.27;;;4.05;;
59390;SDS011;53405;57.012;40.984;2024-02-16T04:30:16;10.07;;;3.83;;
59390;SDS011;53405;57.012;40.984;2024-02-16T04:32:44;10.05;;;3.47;;
59390;SDS011;53405;57.012;40.984;2024-02-16T04:35:11;12.75;;;3.95;;
59390;SDS011;53405;57.012;40.984;2024-02-16T04:37:39;6.32;;;2.92;;
59390;SDS011;53405;57.012;40.984;2024-02-16T04:40:09;10.50;;;4.35;;
59390;SDS011;53405;57.012;40.984;2024-02-16T04:42:39;8.95;;;3.35;;
59390;SDS011;53405;57.012;40.984;2024-02-16T04:45:12;8.63;;;3.88;;
59390;SDS011;53405;57.012;40.984;2024-02-16T04:47:41;8.32;;;3.47;;
59390;SDS011;53405;57.012;40.984;2024-02-16T04:50:08;10.40;;;4.38;;
59390;SDS011;53405;57.012;40.984;2024-02-16T04:52:39;7.72;;;3.35;;
59390;SDS011;53405;57.012;40.984;2024-02-16T04:55:07;10.52;;;4.00;;
59390;SDS011;53405;57.012;40.984;2024-02-16T04:57:35;12.60;;;4.95;;
59390;SDS011;53405;57.012;40.984;2024-02-16T05:00:03;8.88;;;3.45;;
59390;SDS011;53405;57.012;40.984;2024-02-16T05:02:31;7.78;;;3.60;;
59390;SDS011;53405;57.012;40.984;2024-02-16T05:04:58;7.03;;;3.30;;
59390;SDS011;53405;57.012;40.984;2024-02-16T05:07:30;10.30;;;3.70;;
59390;SDS011;53405;57.012;40.984;2024-02-16T05:10:03;11.88;;;4.63;;
59390;SDS011;53405;57.012;40.984;2024-02-16T05:12:31;13.55;;;4.93;;
59390;SDS011;53405;57.012;40.984;2024-02-16T05:14:58;9.45;;;3.25;;
59390;SDS011;53405;57.012;40.984;2024-02-16T05:17:26;21.65;;;7.72;;
59390;SDS011;53405;57.012;40.984;2024-02-16T05:19:54;28.50;;;10.90;;
59390;SDS011;53405;57.012;40.984;2024-02-16T05:22:22;8.52;;;3.50;;
59390;SDS011;53405;57.012;40.984;2024-02-16T05:24:49;9.05;;;3.08;;
59390;SDS011;53405;57.012;40.984;2024-02-16T05:27:17;9.68;;;3.33;;
59390;SDS011;53405;57.012;40.984;2024-02-16T05:29:45;10.65;;;3.85;;
59390;SDS011;53405;57.012;40.984;2024-02-16T05:32:14;11.57;;;4.88;;
59390;SDS011;53405;57.012;40.984;2024-02-16T05:34:41;9.35;;;4.20;;
59390;SDS011;53405;57.012;40.984;2024-02-16T05:37:09;11.02;;;5.03;;
59390;SDS011;53405;57.012;40.984;2024-02-16T05:39:37;20.33;;;4.57;;
59390;SDS011;53405;57.012;40.984;2024-02-16T05:42:21;19.75;;;6.15;;
59390;SDS011;53405;57.012;40.984;2024-02-16T05:44:49;5.18;;;2.30;;
59390;SDS011;53405;57.012;40.984;2024-02-16T05:47:18;10.98;;;4.78;;
59390;SDS011;53405;57.012;40.984;2024-02-16T05:49:46;10.10;;;4.22;;
59390;SDS011;53405;57.012;40.984;2024-02-16T05:52:14;7.38;;;3.40;;
59390;SDS011;53405;57.012;40.984;2024-02-16T05:54:45;11.00;;;4.25;;
59390;SDS011;53405;57.012;40.984;2024-02-16T05:57:15;9.68;;;4.47;;
59390;SDS011;53405;57.012;40.984;2024-02-16T05:59:44;9.85;;;4.30;;
59390;SDS011;53405;57.012;40.984;2024-02-16T06:02:17;18.58;;;8.32;;
59390;SDS011;53405;57.012;40.984;2024-02-16T06:04:44;12.50;;;5.10;;
59390;SDS011;53405;57.012;40.984;2024-02-16T06:07:13;16.33;;;6.38;;
59390;SDS011;53405;57.012;40.984;2024-02-16T06:09:46;10.35;;;3.97;;
59390;SDS011;53405;57.012;40.984;2024-02-16T06:12:13;13.40;;;4.65;;
59390;SDS011;53405;57.012;40.984;2024-02-16T06:14:42;12.25;;;5.10;;
59390;SDS011;53405;57.012;40.984;2024-02-16T06:17:10;11.88;;;4.82;;
59390;SDS011;53405;57.012;40.984;2024-02-16T06:19:38;10.68;;;4.90;;
59390;SDS011;53405;57.012;40.984;2024-02-16T06:22:07;14.13;;;5.45;;
59390;SDS011;53405;57.012;40.984;2024-02-16T06:24:38;9.32;;;4.30;;
59390;SDS011;53405;57.012;40.984;2024-02-16T06:27:05;12.35;;;4.82;;
59390;SDS011;53405;57.012;40.984;2024-02-16T06:32:02;12.68;;;5.50;;
59390;SDS011;53405;57.012;40.984;2024-02-16T06:34:30;10.18;;;3.83;;
59390;SDS011;53405;57.012;40.984;2024-02-16T06:36:58;8.80;;;3.67;;
59390;SDS011;53405;57.012;40.984;2024-02-16T06:39:26;11.75;;;4.80;;
59390;SDS011;53405;57.012;40.984;2024-02-16T06:41:53;13.18;;;5.35;;
59390;SDS011;53405;57.012;40.984;2024-02-16T06:44:21;12.43;;;4.68;;
59390;SDS011;53405;57.012;40.984;2024-02-16T06:49:18;15.45;;;5.32;;
59390;SDS011;53405;57.012;40.984;2024-02-16T06:51:45;15.10;;;5.28;;
59390;SDS011;53405;57.012;40.984;2024-02-16T06:54:13;13.00;;;4.35;;
59390;SDS011;53405;57.012;40.984;2024-02-16T06:56:41;13.35;;;4.93;;
59390;SDS011;53405;57.012;40.984;2024-02-16T06:59:09;13.85;;;4.78;;
59390;SDS011;53405;57.012;40.984;2024-02-16T07:01:37;11.52;;;4.90;;
59390;SDS011;53405;57.012;40.984;2024-02-16T07:04:04;8.15;;;3.80;;
59390;SDS011;53405;57.012;40.984;2024-02-16T07:06:32;9.85;;;4.53;;
59390;SDS011;53405;57.012;40.984;2024-02-16T07:09:00;13.30;;;5.82;;
59390;SDS011;53405;57.012;40.984;2024-02-16T07:11:29;10.45;;;4.13;;
59390;SDS011;53405;57.012;40.984;2024-02-16T07:18:57;9.70;;;3.53;;
59390;SDS011;53405;57.012;40.984;2024-02-16T07:21:25;9.13;;;3.83;;
59390;SDS011;53405;57.012;40.984;2024-02-16T07:23:53;9.82;;;4.95;;
59390;SDS011;53405;57.012;40.984;2024-02-16T07:26:20;10.20;;;4.35;;
59390;SDS011;53405;57.012;40.984;2024-02-16T07:28:48;9.32;;;3.97;;
59390;SDS011;53405;57.012;40.984;2024-02-16T07:31:15;12.75;;;5.65;;
59390;SDS011;53405;57.012;40.984;2024-02-16T07:33:43;9.55;;;3.65;;
59390;SDS011;53405;57.012;40.984;2024-02-16T07:36:11;13.73;;;5.32;;
59390;SDS011;53405;57.012;40.984;2024-02-16T07:38:39;10.38;;;4.15;;
59390;SDS011;53405;57.012;40.984;2024-02-16T07:41:06;12.30;;;4.18;;
59390;SDS011;53405;57.012;40.984;2024-02-16T07:43:35;11.57;;;4.43;;
59390;SDS011;53405;57.012;40.984;2024-02-16T07:46:03;11.82;;;4.40;;
59390;SDS011;53405;57.012;40.984;2024-02-16T07:48:31;9.60;;;3.70;;
59390;SDS011;53405;57.012;40.984;2024-02-16T07:50:59;10.77;;;4.63;;
59390;SDS011;53405;57.012;40.984;2024-02-16T07:53:30;8.55;;;3.60;;
59390;SDS011;53405;57.012;40.984;2024-02-16T07:55:58;11.65;;;5.45;;
59390;SDS011;53405;57.012;40.984;2024-02-16T07:58:26;16.33;;;5.47;;
59390;SDS011;53405;57.012;40.984;2024-02-16T08:00:54;12.45;;;5.40;;
59390;SDS011;53405;57.012;40.984;2024-02-16T08:03:22;12.93;;;5.47;;
59390;SDS011;53405;57.012;40.984;2024-02-16T08:05:50;15.18;;;5.50;;
59390;SDS011;53405;57.012;40.984;2024-02-16T08:08:18;11.63;;;4.28;;
59390;SDS011;53405;57.012;40.984;2024-02-16T08:10:45;13.95;;;4.60;;
59390;SDS011;53405;57.012;40.984;2024-02-16T08:13:13;11.60;;;5.22;;
59390;SDS011;53405;57.012;40.984;2024-02-16T08:15:40;15.18;;;5.85;;
59390;SDS011;53405;57.012;40.984;2024-02-16T08:18:10;12.48;;;4.68;;
59390;SDS011;53405;57.012;40.984;2024-02-16T08:20:40;11.35;;;4.93;;
59390;SDS011;53405;57.012;40.984;2024-02-16T08:23:07;10.18;;;4.50;;
59390;SDS011;53405;57.012;40.984;2024-02-16T08:25:35;15.13;;;6.90;;
59390;SDS011;53405;57.012;40.984;2024-02-16T08:28:02;12.15;;;5.65;;
59390;SDS011;53405;57.012;40.984;2024-02-16T08:30:30;13.00;;;4.90;;
59390;SDS011;53405;57.012;40.984;2024-02-16T08:32:58;11.57;;;5.22;;
59390;SDS011;53405;57.012;40.984;2024-02-16T08:35:30;15.68;;;6.18;;
59390;SDS011;53405;57.012;40.984;2024-02-16T08:37:57;11.52;;;5.00;;
59390;SDS011;53405;57.012;40.984;2024-02-16T08:40:25;15.18;;;5.72;;
59390;SDS011;53405;57.012;40.984;2024-02-16T08:42:52;12.73;;;5.68;;
59390;SDS011;53405;57.012;40.984;2024-02-16T08:45:20;15.43;;;6.95;;
59390;SDS011;53405;57.012;40.984;2024-02-16T08:47:48;14.75;;;6.20;;
59390;SDS011;53405;57.012;40.984;2024-02-16T08:50:19;14.90;;;6.15;;
59390;SDS011;53405;57.012;40.984;2024-02-16T08:52:47;15.80;;;5.80;;
59390;SDS011;53405;57.012;40.984;2024-02-16T08:55:15;11.38;;;5.18;;
59390;SDS011;53405;57.012;40.984;2024-02-16T08:57:43;12.57;;;5.40;;
59390;SDS011;53405;57.012;40.984;2024-02-16T09:00:11;12.43;;;5.05;;
59390;SDS011;53405;57.012;40.984;2024-02-16T09:02:41;12.23;;;4.93;;
59390;SDS011;53405;57.012;40.984;2024-02-16T09:05:10;13.40;;;5.53;;
59390;SDS011;53405;57.012;40.984;2024-02-16T09:07:37;12.30;;;5.78;;
59390;SDS011;53405;57.012;40.984;2024-02-16T09:10:05;8.70;;;4.35;;
59390;SDS011;53405;57.012;40.984;2024-02-16T09:12:34;10.65;;;5.10;;
59390;SDS011;53405;57.012;40.984;2024-02-16T09:15:02;11.88;;;5.80;;
59390;SDS011;53405;57.012;40.984;2024-02-16T09:17:33;12.82;;;5.60;;
59390;SDS011;53405;57.012;40.984;2024-02-16T09:20:00;10.90;;;4.85;;
59390;SDS011;53405;57.012;40.984;2024-02-16T09:22:31;13.93;;;6.35;;
59390;SDS011;53405;57.012;40.984;2024-02-16T09:25:02;11.10;;;4.93;;
59390;SDS011;53405;57.012;40.984;2024-02-16T09:27:30;14.02;;;5.10;;
59390;SDS011;53405;57.012;40.984;2024-02-16T09:29:57;12.45;;;5.35;;
59390;SDS011;53405;57.012;40.984;2024-02-16T09:32:25;13.30;;;5.40;;
59390;SDS011;53405;57.012;40.984;2024-02-16T09:34:52;13.82;;;5.60;;
59390;SDS011;53405;57.012;40.984;2024-02-16T09:37:22;14.13;;;5.50;;
59390;SDS011;53405;57.012;40.984;2024-02-16T09:39:49;10.93;;;4.65;;
59390;SDS011;53405;57.012;40.984;2024-02-16T09:42:18;13.70;;;5.63;;
59390;SDS011;53405;57.012;40.984;2024-02-16T09:44:45;13.38;;;6.22;;
59390;SDS011;53405;57.012;40.984;2024-02-16T09:47:14;10.50;;;4.57;;
59390;SDS011;53405;57.012;40.984;2024-02-16T09:49:47;12.45;;;5.88;;
59390;SDS011;53405;57.012;40.984;2024-02-16T09:52:15;13.27;;;5.90;;
59390;SDS011;53405;57.012;40.984;2024-02-16T09:54:43;11.50;;;5.40;;
59390;SDS011;53405;57.012;40.984;2024-02-16T09:57:10;14.40;;;5.35;;
59390;SDS011;53405;57.012;40.984;2024-02-16T09:59:38;13.27;;;6.10;;
59390;SDS011;53405;57.012;40.984;2024-02-16T10:02:05;15.10;;;6.10;;
59390;SDS011;53405;57.012;40.984;2024-02-16T10:04:38;11.88;;;5.90;;
59390;SDS011;53405;57.012;40.984;2024-02-16T10:07:06;16.50;;;6.90;;
59390;SDS011;53405;57.012;40.984;2024-02-16T10:09:39;16.42;;;6.75;;
59390;SDS011;53405;57.012;40.984;2024-02-16T10:12:10;11.88;;;6.20;;
59390;SDS011;53405;57.012;40.984;2024-02-16T10:14:38;14.75;;;6.60;;
59390;SDS011;53405;57.012;40.984;2024-02-16T10:17:08;15.25;;;7.20;;
59390;SDS011;53405;57.012;40.984;2024-02-16T10:19:36;15.95;;;6.78;;
59390;SDS011;53405;57.012;40.984;2024-02-16T10:22:10;16.10;;;6.57;;
59390;SDS011;53405;57.012;40.984;2024-02-16T10:24:39;13.18;;;6.20;;
59390;SDS011;53405;57.012;40.984;2024-02-16T10:27:14;15.40;;;6.33;;
59390;SDS011;53405;57.012;40.984;2024-02-16T10:29:44;13.27;;;6.82;;
59390;SDS011;53405;57.012;40.984;2024-02-16T10:32:13;9.35;;;4.50;;
59390;SDS011;53405;57.012;40.984;2024-02-16T10:34:41;15.45;;;6.60;;
59390;SDS011;53405;57.012;40.984;2024-02-16T10:37:11;19.90;;;9.50;;
59390;SDS011;53405;57.012;40.984;2024-02-16T10:39:39;14.07;;;6.07;;
59390;SDS011;53405;57.012;40.984;2024-02-16T10:42:08;17.85;;;7.78;;
59390;SDS011;53405;57.012;40.984;2024-02-16T10:44:38;16.73;;;7.45;;
59390;SDS011;53405;57.012;40.984;2024-02-16T10:47:09;16.05;;;7.00;;
59390;SDS011;53405;57.012;40.984;2024-02-16T10:49:37;19.80;;;7.63;;
59390;SDS011;53405;57.012;40.984;2024-02-16T10:52:05;14.07;;;6.40;;
59390;SDS011;53405;57.012;40.984;2024-02-16T10:54:34;12.85;;;5.95;;
59390;SDS011;53405;57.012;40.984;2024-02-16T10:57:08;14.75;;;5.95;;
59390;SDS011;53405;57.012;40.984;2024-02-16T10:59:43;18.67;;;8.35;;
59390;SDS011;53405;57.012;40.984;2024-02-16T11:02:13;20.83;;;9.55;;
59390;SDS011;53405;57.012;40.984;2024-02-16T11:04:45;23.95;;;11.50;;
59390;SDS011;53405;57.012;40.984;2024-02-16T11:07:16;12.50;;;6.45;;
59390;SDS011;53405;57.012;40.984;2024-02-16T11:09:46;16.33;;;5.93;;
59390;SDS011;53405;57.012;40.984;2024-02-16T11:12:15;15.77;;;8.02;;
59390;SDS011;53405;57.012;40.984;2024-02-16T11:14:45;15.95;;;7.03;;
59390;SDS011;53405;57.012;40.984;2024-02-16T11:17:14;13.38;;;6.93;;
59390;SDS011;53405;57.012;40.984;2024-02-16T11:22:16;24.77;;;10.80;;
59390;SDS011;53405;57.012;40.984;2024-02-16T11:24:49;16.95;;;7.93;;
59390;SDS011;53405;57.012;40.984;2024-02-16T11:27:30;16.80;;;9.20;;
59390;SDS011;53405;57.012;40.984;2024-02-16T11:29:58;17.42;;;8.43;;
59390;SDS011;53405;57.012;40.984;2024-02-16T11:32:27;17.67;;;7.15;;
59390;SDS011;53405;57.012;40.984;2024-02-16T11:35:08;16.50;;;6.70;;
59390;SDS011;53405;57.012;40.984;2024-02-16T11:37:36;21.33;;;8.63;;
59390;SDS011;53405;57.012;40.984;2024-02-16T11:40:05;16.30;;;8.10;;
59390;SDS011;53405;57.012;40.984;2024-02-16T11:42:35;14.00;;;6.22;;
59390;SDS011;53405;57.012;40.984;2024-02-16T11:45:04;18.35;;;8.18;;
59390;SDS011;53405;57.012;40.984;2024-02-16T11:47:32;15.15;;;6.82;;
59390;SDS011;53405;57.012;40.984;2024-02-16T11:50:02;16.73;;;7.40;;
59390;SDS011;53405;57.012;40.984;2024-02-16T11:52:39;15.82;;;7.45;;
59390;SDS011;53405;57.012;40.984;2024-02-16T11:55:10;13.20;;;5.95;;
59390;SDS011;53405;57.012;40.984;2024-02-16T11:57:38;16.15;;;6.65;;
59390;SDS011;53405;57.012;40.984;2024-02-16T12:00:07;17.83;;;8.13;;
59390;SDS011;53405;57.012;40.984;2024-02-16T12:02:38;18.83;;;9.02;;
59390;SDS011;53405;57.012;40.984;2024-02-16T12:05:06;12.88;;;6.40;;
59390;SDS011;53405;57.012;40.984;2024-02-16T12:07:39;13.43;;;6.30;;
59390;SDS011;53405;57.012;40.984;2024-02-16T12:10:08;16.10;;;7.38;;
59390;SDS011;53405;57.012;40.984;2024-02-16T12:12:36;19.15;;;7.72;;
59390;SDS011;53405;57.012;40.984;2024-02-16T12:15:04;16.20;;;6.32;;
59390;SDS011;53405;57.012;40.984;2024-02-16T12:17:34;17.35;;;7.75;;
59390;SDS011;53405;57.012;40.984;2024-02-16T12:20:02;17.52;;;7.43;;
59390;SDS011;53405;57.012;40.984;2024-02-16T12:24:59;14.52;;;6.90;;
59390;SDS011;53405;57.012;40.984;2024-02-16T12:27:30;13.32;;;6.55;;
59390;SDS011;53405;57.012;40.984;2024-02-16T12:29:58;17.45;;;7.60;;
59390;SDS011;53405;57.012;40.984;2024-02-16T12:32:25;14.02;;;7.22;;
59390;SDS011;53405;57.012;40.984;2024-02-16T12:34:53;18.65;;;7.88;;
59390;SDS011;53405;57.012;40.984;2024-02-16T12:37:21;16.38;;;7.22;;
59390;SDS011;53405;57.012;40.984;2024-02-16T12:39:50;19.95;;;8.20;;
59390;SDS011;53405;57.012;40.984;2024-02-16T12:42:17;20.70;;;9.60;;
59390;SDS011;53405;57.012;40.984;2024-02-16T12:44:45;16.75;;;8.00;;
59390;SDS011;53405;57.012;40.984;2024-02-16T12:47:13;15.77;;;7.13;;
59390;SDS011;53405;57.012;40.984;2024-02-16T12:49:45;14.32;;;6.55;;
59390;SDS011;53405;57.012;40.984;2024-02-16T12:52:19;16.95;;;7.72;;
59390;SDS011;53405;57.012;40.984;2024-02-16T12:54:51;16.55;;;7.50;;
59390;SDS011;53405;57.012;40.984;2024-02-16T12:59:48;18.52;;;9.50;;
59390;SDS011;53405;57.012;40.984;2024-02-16T13:02:17;15.27;;;7.28;;
59390;SDS011;53405;57.012;40.984;2024-02-16T13:04:45;19.25;;;8.88;;
59390;SDS011;53405;57.012;40.984;2024-02-16T13:07:14;17.08;;;7.18;;
59390;SDS011;53405;57.012;40.984;2024-02-16T13:09:42;15.88;;;6.55;;
59390;SDS011;53405;57.012;40.984;2024-02-16T13:12:09;14.75;;;6.68;;
59390;SDS011;53405;57.012;40.984;2024-02-16T13:14:37;17.67;;;8.57;;
59390;SDS011;53405;57.012;40.984;2024-02-16T13:17:05;16.70;;;7.28;;
59390;SDS011;53405;57.012;40.984;2024-02-16T13:19:32;19.23;;;8.85;;
59390;SDS011;53405;57.012;40.984;2024-02-16T13:22:00;13.63;;;6.80;;
59390;SDS011;53405;57.012;40.984;2024-02-16T13:24:28;18.77;;;8.10;;
59390;SDS011;53405;57.012;40.984;2024-02-16T13:26:56;16.05;;;7.75;;
59390;SDS011;53405;57.012;40.984;2024-02-16T13:29:24;17.63;;;8.82;;
59390;SDS011;53405;57.012;40.984;2024-02-16T13:31:52;15.32;;;7.18;;
59390;SDS011;53405;57.012;40.984;2024-02-16T13:34:21;20.35;;;8.18;;
59390;SDS011;53405;57.012;40.984;2024-02-16T13:36:49;12.13;;;5.93;;
59390;SDS011;53405;57.012;40.984;2024-02-16T13:39:16;16.70;;;7.80;;
59390;SDS011;53405;57.012;40.984;2024-02-16T13:41:45;30.90;;;15.80;;
59390;SDS011;53405;57.012;40.984;2024-02-16T13:44:15;10.75;;;5.55;;
59390;SDS011;53405;57.012;40.984;2024-02-16T13:46:43;12.52;;;6.28;;
59390;SDS011;53405;57.012;40.984;2024-02-16T13:49:14;16.27;;;6.88;;
59390;SDS011;53405;57.012;40.984;2024-02-16T13:51:42;18.02;;;7.30;;
59390;SDS011;53405;57.012;40.984;2024-02-16T13:54:10;17.63;;;7.22;;
59390;SDS011;53405;57.012;40.984;2024-02-16T13:56:37;16.52;;;7.65;;
59390;SDS011;53405;57.012;40.984;2024-02-16T13:59:06;15.88;;;7.60;;
59390;SDS011;53405;57.012;40.984;2024-02-16T14:01:36;14.18;;;6.97;;
59390;SDS011;53405;57.012;40.984;2024-02-16T14:04:04;15.00;;;7.00;;
59390;SDS011;53405;57.012;40.984;2024-02-16T14:06:32;54.45;;;19.85;;
59390;SDS011;53405;57.012;40.984;2024-02-16T14:09:00;19.27;;;7.75;;
59390;SDS011;53405;57.012;40.984;2024-02-16T14:11:29;14.85;;;7.25;;
59390;SDS011;53405;57.012;40.984;2024-02-16T14:13:56;19.60;;;8.85;;
59390;SDS011;53405;57.012;40.984;2024-02-16T14:16:24;17.85;;;7.55;;
59390;SDS011;53405;57.012;40.984;2024-02-16T14:18:52;21.35;;;9.70;;
59390;SDS011;53405;57.012;40.984;2024-02-16T14:21:20;16.40;;;6.28;;
59390;SDS011;53405;57.012;40.984;2024-02-16T14:23:51;15.90;;;7.28;;
59390;SDS011;53405;57.012;40.984;2024-02-16T14:26:19;17.92;;;7.53;;
59390;SDS011;53405;57.012;40.984;2024-02-16T14:28:47;17.98;;;8.32;;
59390;SDS011;53405;57.012;40.984;2024-02-16T14:31:15;15.05;;;6.32;;
59390;SDS011;53405;57.012;40.984;2024-02-16T14:33:44;20.83;;;8.13;;
59390;SDS011;53405;57.012;40.984;2024-02-16T14:36:12;16.00;;;6.43;;
59390;SDS011;53405;57.012;40.984;2024-02-16T14:38:39;16.50;;;7.03;;
59390;SDS011;53405;57.012;40.984;2024-02-16T14:41:07;16.58;;;7.07;;
59390;SDS011;53405;57.012;40.984;2024-02-16T14:43:35;15.80;;;7.18;;
59390;SDS011;53405;57.012;40.984;2024-02-16T14:46:02;17.83;;;7.60;;
59390;SDS011;53405;57.012;40.984;2024-02-16T14:48:33;16.10;;;6.95;;
59390;SDS011;53405;57.012;40.984;2024-02-16T14:51:02;11.23;;;5.22;;